Airfield :
LOGIN :

Register | Disclaimer

   EN    FR    IT 

 










Legend :    VFR   Marginal VFR   IFR   Intensive IFR   Very Intensive IFR
Visi :
Ceiling :
>= 8 km
>= 3000ft
5 to 8 km
1000 to 3000 ft
1500m to 5 km
500 to 1000 ft
800 to 1500m
200 to 500 ft
< 800m
< 200 ft
Symbols :   Thunderstorms  Fog  Heavy snow  Heavy precipitations  Wind > 20 kt
SIGMETs :     Misc.  Thunderstorms  Icing  Turbulence  Mountain Waves  Volcanic Ashes






- Airport Elevation : 461 ft
- IATA code : WIE


ETOU - Wiesbaden Army

CURRENT METAR :
  • 070856Z AUTO 24010KT 9999 FEW039 10/02 A2990 RMK AO2 SLP131 T01020018 52013 $

EXPIRED METARs :
  • 070801Z AUTO 28007KT 9999 SCT029 08/02 A2989 RMK AO2 SLP128 $
  • 070756Z AUTO 26005KT 9999 BKN030 08/01 A2989 RMK AO2 SLP128 T00810013 $
  • 070741Z AUTO 30008KT 9999 BKN026 BKN032 08/02 A2989 RMK AO2 CIG 026V032 SLP128 $
  • 070711Z AUTO 27007KT 9999 SCT027 08/02 A2987 RMK AO2 SLP121 $
  • 070656Z AUTO 28008KT 9999 BKN025 07/02 A2987 RMK AO2 SLPNO T00720021 $

TAF AMD TAF ETOU
Valid from the 07 at 09:00 until the 08 at 10:00 UTC


070927Z 0709/0810 28010G15KT 9999 SCT020 BKN040 QNH2985INS
TEMPO 0709/0712 29015G25KT 8000 -TSRA BKN020CB 510005
BECMG 0711/0712 29010G15KT 9999 BKN050 QNH2994INS
BECMG 0716/0717 31010G20KT 9999 SCT060 QNH2997INS TX12/0715Z TN05/0805Z



MET'MAP, your aeronautical weather chart ! - Copyright ORBIFLY December 2007 - Disclaimer

ORBIFLY MET'MAP TEAM :

Programming & Development : Alexandra Zaïnal
Concept & original design : Baudouin d'Aumeries
Assistance for programming : Marc-Olivier Méhu
Technical & hardware support : Manuel Goepfert

Contact : metmap@orbifly.com




SOURCES & CREDITS :

   NOAA